createdAt,value
2022-11-30T00:00:02.589Z,4.20
2022-11-30T00:02:30.140Z,4.43
2022-11-30T00:04:56.719Z,4.47
2022-11-30T00:07:25.851Z,3.70
2022-11-30T00:09:52.429Z,4.10
2022-11-30T00:12:18.978Z,3.97
2022-11-30T00:14:45.811Z,4.20
2022-11-30T00:17:12.468Z,4.70
2022-11-30T00:19:39.011Z,4.20
2022-11-30T00:22:05.612Z,3.90
2022-11-30T00:24:32.138Z,4.90
2022-11-30T00:26:58.724Z,4.43
2022-11-30T00:29:29.771Z,4.70
2022-11-30T00:31:56.278Z,4.00
2022-11-30T00:34:22.764Z,4.33
2022-11-30T00:36:51.925Z,4.70
2022-11-30T00:39:18.507Z,4.00
2022-11-30T00:41:45.070Z,4.43
2022-11-30T00:44:11.562Z,4.70
2022-11-30T00:46:38.090Z,4.33
2022-11-30T00:49:04.635Z,4.20
2022-11-30T00:51:31.250Z,4.43
2022-11-30T00:53:57.789Z,4.10
2022-11-30T00:56:25.023Z,4.50
2022-11-30T00:58:51.578Z,4.33
2022-11-30T01:01:18.198Z,4.10
2022-11-30T01:03:44.868Z,4.47
2022-11-30T01:06:11.472Z,4.10
2022-11-30T01:08:38.135Z,4.63
2022-11-30T01:11:24.603Z,4.20
2022-11-30T01:13:51.684Z,4.40
2022-11-30T01:16:20.197Z,4.40
2022-11-30T01:18:46.779Z,4.70
2022-11-30T01:21:15.255Z,4.60
2022-11-30T01:23:41.835Z,4.37
2022-11-30T01:26:08.415Z,4.20
2022-11-30T01:28:35.110Z,4.40
2022-11-30T01:31:06.449Z,4.40
2022-11-30T01:33:33.288Z,4.97
2022-11-30T01:36:00.764Z,5.17
2022-11-30T01:38:31.032Z,4.90
2022-11-30T01:40:57.577Z,4.53
2022-11-30T01:43:46.598Z,4.40
2022-11-30T01:46:47.001Z,4.80
2022-11-30T01:49:19.667Z,4.70
2022-11-30T01:51:51.770Z,4.33
2022-11-30T01:54:26.767Z,4.67
2022-11-30T01:56:57.887Z,4.77
2022-11-30T01:59:24.579Z,4.73
2022-11-30T02:01:51.868Z,4.03
2022-11-30T02:04:32.524Z,4.23
2022-11-30T02:06:59.272Z,4.97
2022-11-30T02:09:26.195Z,4.53
2022-11-30T02:11:52.791Z,4.50
2022-11-30T02:14:33.547Z,4.80
2022-11-30T02:17:06.328Z,4.80
2022-11-30T02:19:58.878Z,4.73
2022-11-30T02:22:50.397Z,4.53
2022-11-30T02:25:26.375Z,4.87
2022-11-30T02:28:11.686Z,4.73
2022-11-30T02:30:40.727Z,4.87
2022-11-30T02:33:12.726Z,4.83
2022-11-30T02:35:40.768Z,4.80
2022-11-30T02:38:07.362Z,5.20
2022-11-30T02:40:33.917Z,4.67
2022-11-30T02:43:00.575Z,4.70
2022-11-30T02:45:34.578Z,5.00
2022-11-30T02:48:10.507Z,4.73
2022-11-30T02:50:48.607Z,5.10
2022-11-30T02:53:15.140Z,4.57
2022-11-30T02:55:41.769Z,4.93
2022-11-30T02:58:08.341Z,4.67
2022-11-30T03:00:34.888Z,5.00
2022-11-30T03:03:01.535Z,5.23
2022-11-30T03:05:28.098Z,4.60
2022-11-30T03:07:54.713Z,4.80
2022-11-30T03:10:21.305Z,4.97
2022-11-30T03:12:47.930Z,4.67
2022-11-30T03:15:14.536Z,5.50
2022-11-30T03:17:41.060Z,4.90
2022-11-30T03:20:08.262Z,4.80
2022-11-30T03:22:34.766Z,5.30
2022-11-30T03:25:01.300Z,5.13
2022-11-30T03:27:27.822Z,5.30
2022-11-30T03:29:54.558Z,5.70
2022-11-30T03:32:21.104Z,5.50
2022-11-30T03:34:47.936Z,5.30
2022-11-30T03:37:14.658Z,5.47
2022-11-30T03:39:41.176Z,5.23
2022-11-30T03:42:07.691Z,5.50
2022-11-30T03:44:34.178Z,5.37
2022-11-30T03:47:00.735Z,5.30
2022-11-30T03:49:27.297Z,5.77
2022-11-30T03:51:53.909Z,5.57
2022-11-30T03:54:21.648Z,5.60
2022-11-30T03:56:48.178Z,5.70
2022-11-30T03:59:14.707Z,5.77
2022-11-30T04:01:41.364Z,5.80
2022-11-30T04:04:08.011Z,5.90
2022-11-30T04:06:34.636Z,5.67
2022-11-30T04:09:01.284Z,5.90
2022-11-30T04:11:27.836Z,6.03
2022-11-30T04:13:54.444Z,6.33
2022-11-30T04:16:21.065Z,6.00
2022-11-30T04:18:47.622Z,5.70
2022-11-30T04:21:14.156Z,6.00
2022-11-30T04:23:40.678Z,6.10
2022-11-30T04:26:09.196Z,6.73
2022-11-30T04:28:35.834Z,6.13
2022-11-30T04:31:02.923Z,6.20
2022-11-30T04:33:29.752Z,5.93
2022-11-30T04:35:58.024Z,5.50
2022-11-30T04:38:24.758Z,6.20
2022-11-30T04:40:51.511Z,6.00
2022-11-30T04:43:18.083Z,6.43
2022-11-30T04:45:45.096Z,6.37
2022-11-30T04:48:11.797Z,6.03
2022-11-30T04:50:39.436Z,6.00
2022-11-30T04:53:06.112Z,6.57
2022-11-30T04:55:32.767Z,6.43
2022-11-30T04:57:59.334Z,5.83
2022-11-30T05:00:25.953Z,6.67
2022-11-30T05:02:53.301Z,6.30
2022-11-30T05:05:20.042Z,6.20
2022-11-30T05:07:50.037Z,6.03
2022-11-30T05:10:16.806Z,6.63
2022-11-30T05:12:43.461Z,6.70
2022-11-30T05:15:10.444Z,6.90
2022-11-30T05:17:36.963Z,6.90
2022-11-30T05:20:03.627Z,6.63
2022-11-30T05:22:30.183Z,6.30
2022-11-30T05:24:56.740Z,6.63
2022-11-30T05:27:23.237Z,7.37
2022-11-30T05:29:49.797Z,6.47
2022-11-30T05:32:16.351Z,7.00
2022-11-30T05:34:50.690Z,7.33
2022-11-30T05:37:18.843Z,7.40
2022-11-30T05:39:45.354Z,7.27
2022-11-30T05:42:11.932Z,7.93
2022-11-30T05:44:38.435Z,7.40
2022-11-30T05:47:05.080Z,7.40
2022-11-30T05:49:31.663Z,7.27
2022-11-30T05:51:58.191Z,6.67
2022-11-30T05:54:24.722Z,6.43
2022-11-30T05:56:54.675Z,6.83
2022-11-30T05:59:22.027Z,7.03
2022-11-30T06:01:48.716Z,6.87
2022-11-30T06:04:15.427Z,6.87
2022-11-30T06:06:41.940Z,6.77
2022-11-30T06:09:16.499Z,7.07
2022-11-30T06:11:43.099Z,7.13
2022-11-30T06:14:09.675Z,6.70
2022-11-30T06:16:39.220Z,6.80
2022-11-30T06:19:05.864Z,7.10
2022-11-30T06:21:32.461Z,7.37
2022-11-30T06:23:58.955Z,6.43
2022-11-30T06:26:25.523Z,6.97
2022-11-30T06:28:52.055Z,6.83
2022-11-30T06:31:18.711Z,7.03
2022-11-30T06:33:45.283Z,6.60
2022-11-30T06:36:11.869Z,9.43
2022-11-30T06:38:38.448Z,8.13
2022-11-30T06:41:06.159Z,7.80
2022-11-30T06:43:36.293Z,9.87
2022-11-30T06:46:03.799Z,12.60
2022-11-30T06:48:30.470Z,11.50
2022-11-30T06:50:57.229Z,11.03
2022-11-30T06:53:23.759Z,12.47
2022-11-30T06:55:50.307Z,12.07
2022-11-30T06:58:16.848Z,11.47
2022-11-30T07:00:43.425Z,10.93
2022-11-30T07:03:10.700Z,10.97
2022-11-30T07:05:44.600Z,10.17
2022-11-30T07:08:14.655Z,10.73
2022-11-30T07:10:42.169Z,10.50
2022-11-30T07:13:12.746Z,10.80
2022-11-30T07:15:40.042Z,11.57
2022-11-30T07:18:06.787Z,10.57
2022-11-30T07:20:33.365Z,11.07
2022-11-30T07:23:19.880Z,11.57
2022-11-30T07:26:05.121Z,12.27
2022-11-30T07:28:31.694Z,12.00
2022-11-30T07:30:58.199Z,12.53
2022-11-30T07:33:24.694Z,11.73
2022-11-30T07:35:53.496Z,12.27
2022-11-30T07:38:20.311Z,12.13
2022-11-30T07:40:46.900Z,12.53
2022-11-30T07:43:13.395Z,12.43
2022-11-30T07:45:40.049Z,12.23
2022-11-30T07:48:06.737Z,12.20
2022-11-30T07:50:33.292Z,11.67
2022-11-30T07:52:59.826Z,11.23
2022-11-30T07:55:26.421Z,12.27
2022-11-30T07:57:53.223Z,12.57
2022-11-30T08:00:19.713Z,12.90
2022-11-30T08:02:46.217Z,11.60
2022-11-30T08:05:12.976Z,12.37
2022-11-30T08:07:39.527Z,12.07
2022-11-30T08:10:06.688Z,12.03
2022-11-30T08:12:33.300Z,10.80
2022-11-30T08:15:19.444Z,11.37
2022-11-30T08:17:46.342Z,10.57
2022-11-30T08:20:13.089Z,11.37
2022-11-30T08:22:39.645Z,9.93
2022-11-30T08:25:06.704Z,10.73
2022-11-30T08:27:33.215Z,10.00
2022-11-30T08:29:59.828Z,10.00
2022-11-30T08:32:26.302Z,10.27
2022-11-30T08:34:52.899Z,9.73
2022-11-30T08:37:19.436Z,9.40
2022-11-30T08:39:46.028Z,9.50
2022-11-30T08:42:12.554Z,9.90
2022-11-30T08:44:39.343Z,9.13
2022-11-30T08:47:07.339Z,9.80
2022-11-30T08:49:33.907Z,9.13
2022-11-30T08:52:17.506Z,9.03
2022-11-30T08:54:46.120Z,9.67
2022-11-30T08:57:14.156Z,8.90
2022-11-30T08:59:40.679Z,9.03
2022-11-30T09:02:10.042Z,8.00
2022-11-30T09:04:36.586Z,8.57
2022-11-30T09:07:03.730Z,8.13
2022-11-30T09:09:30.355Z,8.57
2022-11-30T09:11:57.006Z,8.63
2022-11-30T09:14:23.566Z,8.90
2022-11-30T09:16:50.117Z,8.07
2022-11-30T09:19:16.703Z,8.70
2022-11-30T09:21:49.770Z,8.53
2022-11-30T09:24:18.381Z,8.20
2022-11-30T09:26:44.897Z,9.10
2022-11-30T09:29:11.410Z,7.73
2022-11-30T09:31:37.959Z,8.67
2022-11-30T09:34:04.487Z,7.83
2022-11-30T09:36:32.984Z,9.20
2022-11-30T09:38:59.556Z,10.17
2022-11-30T09:41:45.439Z,8.87
2022-11-30T09:44:11.856Z,9.47
2022-11-30T09:46:40.972Z,8.93
2022-11-30T09:49:13.245Z,8.83
2022-11-30T09:51:43.064Z,9.00
2022-11-30T09:54:38.107Z,8.63
2022-11-30T09:57:12.826Z,8.87
2022-11-30T09:59:39.322Z,8.30
2022-11-30T10:02:16.429Z,8.50
2022-11-30T10:04:43.065Z,7.70
2022-11-30T10:07:19.262Z,7.93
2022-11-30T10:10:31.865Z,8.30
2022-11-30T10:13:18.406Z,7.70
2022-11-30T10:15:51.027Z,8.40
2022-11-30T10:18:32.512Z,7.80
2022-11-30T10:21:15.590Z,7.93
2022-11-30T10:24:11.431Z,7.60
2022-11-30T10:26:40.054Z,7.40
2022-11-30T10:29:13.060Z,7.87
2022-11-30T10:31:40.005Z,7.50
2022-11-30T10:34:12.636Z,6.83
2022-11-30T10:36:44.155Z,7.23
2022-11-30T10:39:27.549Z,6.93
2022-11-30T10:42:04.489Z,6.83
2022-11-30T10:44:34.011Z,6.73
2022-11-30T10:47:13.730Z,7.03
2022-11-30T10:49:43.756Z,6.63
2022-11-30T10:52:12.666Z,7.00
2022-11-30T10:54:39.179Z,7.30
2022-11-30T10:57:05.818Z,6.83
2022-11-30T10:59:52.933Z,7.63
2022-11-30T11:02:39.714Z,6.47
2022-11-30T11:05:29.153Z,6.93
2022-11-30T11:08:07.091Z,6.97
2022-11-30T11:10:44.747Z,6.90
2022-11-30T11:13:19.605Z,6.53
2022-11-30T11:15:57.275Z,7.00
2022-11-30T11:18:33.988Z,6.47
2022-11-30T11:21:04.410Z,6.73
2022-11-30T11:23:36.974Z,6.60
2022-11-30T11:26:03.983Z,7.10
2022-11-30T11:28:30.527Z,6.30
2022-11-30T11:30:57.567Z,6.93
2022-11-30T11:33:28.157Z,6.60
2022-11-30T11:35:56.140Z,7.30
2022-11-30T11:38:22.526Z,6.47
2022-11-30T11:41:05.563Z,7.17
2022-11-30T11:43:33.259Z,6.87
2022-11-30T11:46:17.765Z,7.07
2022-11-30T11:48:48.887Z,6.70
2022-11-30T11:51:15.417Z,7.20
2022-11-30T11:53:53.580Z,7.20
2022-11-30T11:56:23.591Z,6.97
2022-11-30T11:59:11.798Z,6.97
2022-11-30T12:01:50.445Z,7.83
2022-11-30T12:04:45.886Z,7.80
2022-11-30T12:07:18.571Z,7.80
2022-11-30T12:10:28.470Z,7.77
2022-11-30T12:12:58.768Z,7.43
2022-11-30T12:15:32.947Z,7.67
2022-11-30T12:18:02.387Z,7.67
2022-11-30T12:20:51.104Z,8.97
2022-11-30T12:23:46.884Z,9.70
2022-11-30T12:26:22.786Z,9.60
2022-11-30T12:29:23.122Z,9.40
2022-11-30T12:31:58.391Z,9.30
2022-11-30T12:34:34.399Z,10.03
2022-11-30T12:37:04.078Z,9.60
2022-11-30T12:39:41.148Z,10.07
2022-11-30T12:42:10.599Z,10.20
2022-11-30T12:44:57.000Z,9.53
2022-11-30T12:47:43.273Z,10.40
2022-11-30T12:50:31.662Z,10.10
2022-11-30T12:53:05.385Z,9.87
2022-11-30T12:55:40.477Z,9.83
2022-11-30T12:58:19.321Z,10.37
2022-11-30T13:01:21.579Z,9.90
2022-11-30T13:03:53.763Z,9.77
2022-11-30T13:06:40.960Z,9.87
2022-11-30T13:09:19.253Z,9.67
2022-11-30T13:11:48.791Z,10.03
2022-11-30T13:14:35.548Z,9.37
2022-11-30T13:17:04.318Z,10.07
2022-11-30T13:19:52.193Z,10.17
2022-11-30T13:23:11.255Z,9.37
2022-11-30T13:26:12.999Z,9.57
2022-11-30T13:28:42.470Z,9.87
2022-11-30T13:31:22.215Z,9.93
2022-11-30T13:33:54.761Z,10.47
2022-11-30T13:36:39.716Z,10.13
2022-11-30T13:39:15.366Z,10.70
2022-11-30T13:41:53.289Z,9.87
2022-11-30T13:44:37.123Z,10.40
2022-11-30T13:47:18.743Z,10.10
2022-11-30T13:49:45.649Z,9.30
2022-11-30T13:52:22.676Z,9.80
2022-11-30T13:54:51.279Z,9.67
2022-11-30T13:57:38.248Z,9.60
2022-11-30T14:00:44.082Z,10.07
2022-11-30T14:03:22.575Z,9.40
2022-11-30T14:05:53.272Z,9.37
2022-11-30T14:08:22.497Z,9.20
2022-11-30T14:10:52.438Z,9.40
2022-11-30T14:13:21.205Z,9.43
2022-11-30T14:15:47.702Z,8.67
2022-11-30T14:18:16.989Z,8.97
2022-11-30T14:20:54.325Z,9.30
2022-11-30T14:23:48.887Z,9.67
2022-11-30T14:26:17.736Z,9.20
2022-11-30T14:28:50.818Z,9.13
2022-11-30T14:31:20.906Z,9.10
2022-11-30T14:33:58.528Z,9.77
2022-11-30T14:36:27.225Z,8.80
2022-11-30T14:38:53.838Z,9.03
2022-11-30T14:41:26.763Z,8.67
2022-11-30T14:44:02.121Z,8.80
2022-11-30T14:46:29.188Z,8.40
2022-11-30T14:49:14.810Z,9.00
2022-11-30T14:51:47.616Z,8.33
2022-11-30T14:54:35.619Z,8.60
2022-11-30T14:57:13.746Z,9.13
2022-11-30T14:59:50.342Z,8.23
2022-11-30T15:02:33.650Z,9.03
2022-11-30T15:05:00.284Z,8.23
2022-11-30T15:07:26.993Z,8.83
2022-11-30T15:10:18.099Z,9.33
2022-11-30T15:12:46.735Z,8.73
2022-11-30T15:15:24.008Z,11.73
2022-11-30T15:18:06.850Z,13.17
2022-11-30T15:20:45.357Z,13.67
2022-11-30T15:23:15.223Z,13.63
2022-11-30T15:25:47.175Z,12.70
2022-11-30T15:28:17.989Z,12.23
2022-11-30T15:30:44.840Z,11.67
2022-11-30T15:33:18.983Z,11.50
2022-11-30T15:36:12.427Z,12.17
2022-11-30T15:38:33.046Z,11.33
2022-11-30T15:41:07.063Z,11.20
2022-11-30T15:43:37.625Z,10.60
2022-11-30T15:46:04.698Z,10.57
2022-11-30T15:48:35.576Z,11.00
2022-11-30T15:51:02.185Z,11.57
2022-11-30T15:53:32.827Z,9.67
2022-11-30T15:56:06.778Z,11.17
2022-11-30T15:58:45.696Z,11.20
2022-11-30T16:01:18.688Z,10.50
2022-11-30T16:04:17.831Z,11.20
2022-11-30T16:06:45.929Z,11.53
2022-11-30T16:09:20.427Z,11.63
2022-11-30T16:11:48.616Z,12.60
2022-11-30T16:14:16.821Z,12.30
2022-11-30T16:16:43.718Z,13.17
2022-11-30T16:19:10.496Z,13.47
2022-11-30T16:21:37.042Z,13.33
2022-11-30T16:24:03.725Z,12.47
2022-11-30T16:29:16.865Z,11.67
2022-11-30T16:31:43.481Z,12.43
2022-11-30T16:34:12.492Z,11.73
2022-11-30T16:36:39.160Z,11.40
2022-11-30T16:39:05.963Z,11.07
2022-11-30T16:41:32.544Z,10.77
2022-11-30T16:43:59.047Z,11.37
2022-11-30T16:46:26.976Z,12.30
2022-11-30T16:48:53.645Z,13.53
2022-11-30T16:51:30.787Z,14.00
2022-11-30T16:53:57.674Z,14.53
2022-11-30T16:56:24.426Z,13.73
2022-11-30T16:58:51.124Z,13.43
2022-11-30T17:01:36.820Z,13.80
2022-11-30T17:04:38.894Z,12.80
2022-11-30T17:07:05.471Z,12.23
2022-11-30T17:09:34.553Z,12.87
2022-11-30T17:12:01.268Z,11.93
2022-11-30T17:14:28.328Z,12.40
2022-11-30T17:16:55.312Z,12.00
2022-11-30T17:19:23.009Z,12.20
2022-11-30T17:21:50.903Z,11.63
2022-11-30T17:24:17.476Z,11.53
2022-11-30T17:26:44.008Z,11.07
2022-11-30T17:29:10.550Z,11.33
2022-11-30T17:31:37.204Z,12.03
2022-11-30T17:34:03.873Z,10.80
2022-11-30T17:36:30.364Z,10.83
2022-11-30T17:38:56.985Z,11.57
2022-11-30T17:41:23.636Z,10.23
2022-11-30T17:43:50.254Z,10.60
2022-11-30T17:46:17.862Z,10.00
2022-11-30T17:48:44.599Z,11.17
2022-11-30T17:51:11.606Z,10.57
2022-11-30T17:53:38.910Z,10.40
2022-11-30T17:56:07.033Z,9.93
2022-11-30T17:58:36.098Z,9.83
2022-11-30T18:01:05.356Z,10.13
2022-11-30T18:03:32.019Z,9.90
2022-11-30T18:06:01.851Z,9.80
2022-11-30T18:08:29.291Z,9.67
2022-11-30T18:10:55.985Z,9.53
2022-11-30T18:13:22.644Z,10.00
2022-11-30T18:15:49.241Z,9.10
2022-11-30T18:18:15.775Z,9.30
2022-11-30T18:20:42.368Z,9.30
2022-11-30T18:23:09.027Z,9.27
2022-11-30T18:25:35.887Z,8.90
2022-11-30T18:28:02.471Z,9.37
2022-11-30T18:30:29.054Z,8.97
2022-11-30T18:32:55.668Z,9.33
2022-11-30T18:35:22.387Z,9.07
2022-11-30T18:37:48.878Z,8.73
2022-11-30T18:40:15.502Z,8.47
2022-11-30T18:42:42.044Z,8.40
2022-11-30T18:45:09.003Z,9.07
2022-11-30T18:47:35.576Z,8.40
2022-11-30T18:50:02.061Z,8.03
2022-11-30T18:52:28.558Z,7.77
2022-11-30T18:54:55.108Z,7.57
2022-11-30T18:57:21.664Z,8.47
2022-11-30T18:59:53.766Z,7.90
2022-11-30T19:02:21.656Z,7.53
2022-11-30T19:04:48.462Z,8.00
2022-11-30T19:07:15.136Z,8.17
2022-11-30T19:09:42.497Z,7.90
2022-11-30T19:12:09.026Z,7.80
2022-11-30T19:14:35.589Z,7.90
2022-11-30T19:17:02.107Z,7.40
2022-11-30T19:19:31.210Z,8.23
2022-11-30T19:21:58.287Z,8.17
2022-11-30T19:24:24.795Z,7.87
2022-11-30T19:26:51.353Z,7.93
2022-11-30T19:29:17.894Z,7.70
2022-11-30T19:31:44.509Z,7.60
2022-11-30T19:34:13.230Z,8.00
2022-11-30T19:36:40.073Z,7.27
2022-11-30T19:39:06.611Z,7.97
2022-11-30T19:41:33.168Z,7.07
2022-11-30T19:44:03.924Z,6.83
2022-11-30T19:46:31.940Z,7.40
2022-11-30T19:49:00.660Z,7.27
2022-11-30T19:51:27.507Z,7.57
2022-11-30T19:53:55.603Z,6.97
2022-11-30T19:56:23.268Z,7.00
2022-11-30T19:58:49.767Z,7.33
2022-11-30T20:01:19.331Z,7.13
2022-11-30T20:03:45.953Z,7.40
2022-11-30T20:06:12.507Z,7.37
2022-11-30T20:08:39.170Z,7.73
2022-11-30T20:11:09.700Z,7.17
2022-11-30T20:13:36.320Z,7.80
2022-11-30T20:16:09.775Z,6.60
2022-11-30T20:18:39.073Z,7.00
2022-11-30T20:21:15.728Z,7.17
2022-11-30T20:23:42.579Z,7.43
2022-11-30T20:26:16.040Z,7.00
2022-11-30T20:28:42.864Z,7.77
2022-11-30T20:31:10.348Z,7.03
2022-11-30T20:33:37.191Z,6.43
2022-11-30T20:36:08.284Z,6.73
2022-11-30T20:38:34.907Z,7.67
2022-11-30T20:41:02.111Z,7.10
2022-11-30T20:43:28.694Z,7.00
2022-11-30T20:45:55.392Z,7.13
2022-11-30T20:48:22.079Z,7.10
2022-11-30T20:51:14.002Z,6.97
2022-11-30T20:53:35.181Z,7.10
2022-11-30T20:56:01.812Z,7.77
2022-11-30T20:58:28.384Z,7.63
2022-11-30T21:00:54.885Z,6.70
2022-11-30T21:03:21.375Z,7.13
2022-11-30T21:05:47.922Z,6.63
2022-11-30T21:08:14.521Z,7.17
2022-11-30T21:10:41.046Z,6.70
2022-11-30T21:13:07.620Z,7.10
2022-11-30T21:15:34.201Z,6.73
2022-11-30T21:18:00.843Z,6.93
2022-11-30T21:20:27.496Z,6.93
2022-11-30T21:22:54.018Z,7.40
2022-11-30T21:25:20.616Z,7.07
2022-11-30T21:27:51.734Z,7.87
2022-11-30T21:30:18.660Z,7.70
2022-11-30T21:32:45.228Z,7.43
2022-11-30T21:35:11.780Z,7.20
2022-11-30T21:37:38.289Z,7.30
2022-11-30T21:40:05.275Z,7.20
2022-11-30T21:42:31.770Z,6.80
2022-11-30T21:44:58.340Z,7.03
2022-11-30T21:47:24.908Z,6.90
2022-11-30T21:49:51.375Z,6.70
2022-11-30T21:52:17.954Z,7.07
2022-11-30T21:54:44.534Z,6.73
2022-11-30T21:57:11.066Z,6.77
2022-11-30T21:59:37.595Z,6.70
2022-11-30T22:02:04.363Z,7.10
2022-11-30T22:04:30.918Z,7.30
2022-11-30T22:06:57.502Z,7.07
2022-11-30T22:09:24.038Z,7.00
2022-11-30T22:11:50.636Z,6.30
2022-11-30T22:14:17.128Z,6.90
2022-11-30T22:16:43.785Z,6.80
2022-11-30T22:19:10.458Z,6.63
2022-11-30T22:21:36.991Z,6.43
2022-11-30T22:24:08.039Z,7.23
2022-11-30T22:26:38.851Z,6.90
2022-11-30T22:29:13.714Z,7.00
2022-11-30T22:31:41.347Z,7.10
2022-11-30T22:34:07.999Z,6.80
2022-11-30T22:36:35.300Z,6.83
2022-11-30T22:39:04.557Z,6.77
2022-11-30T22:41:31.214Z,6.60
2022-11-30T22:43:57.985Z,6.73
2022-11-30T22:46:28.743Z,6.90
2022-11-30T22:48:55.398Z,6.87
2022-11-30T22:51:26.729Z,6.40
2022-11-30T22:53:53.550Z,6.80
2022-11-30T22:56:21.537Z,6.30
2022-11-30T22:58:48.866Z,6.97
2022-11-30T23:01:17.074Z,6.80
2022-11-30T23:03:44.301Z,6.47
2022-11-30T23:06:11.283Z,6.63
2022-11-30T23:08:38.001Z,6.50
2022-11-30T23:11:06.478Z,6.67
2022-11-30T23:13:33.051Z,6.60
2022-11-30T23:16:00.112Z,7.27
2022-11-30T23:18:27.939Z,6.70
2022-11-30T23:20:55.453Z,7.00
2022-11-30T23:23:22.894Z,6.60
2022-11-30T23:25:49.548Z,6.60
2022-11-30T23:28:16.681Z,6.90
2022-11-30T23:30:43.240Z,7.00
2022-11-30T23:33:10.272Z,6.93
2022-11-30T23:35:38.320Z,6.50
2022-11-30T23:38:04.852Z,6.90
2022-11-30T23:40:31.630Z,6.30
2022-11-30T23:42:58.181Z,6.70
2022-11-30T23:45:24.904Z,6.10
2022-11-30T23:47:51.467Z,7.00
2022-11-30T23:50:17.973Z,6.60
2022-11-30T23:52:44.490Z,6.47
2022-11-30T23:55:10.989Z,6.67
2022-11-30T23:57:37.495Z,7.10
